Time;durP1;ratioP1;P1;durP2;ratioP2;P2;SDS_P1;SDS_P2;PMS_P1;PMS_P2;Temp;Humidity;BMP_temperature;BMP_pressure;BME280_temperature;BME280_humidity;BME280_pressure;Samples;Min_cycle;Max_cycle;Signal;HPM_P1;HPM_P2
2021/07/31 00:01:14;;;;;;;15.50;5.00;;;;;;;19.42;51.11;99793.06;1737132;80;25944;-68
2021/07/31 00:03:40;;;;;;;17.12;5.70;;;;;;;19.40;51.17;99795.06;1742062;80;25895;-68
2021/07/31 00:06:09;;;;;;;21.35;4.90;;;;;;;19.38;51.27;99792.13;1744354;80;25763;-68
2021/07/31 00:08:37;;;;;;;20.23;5.00;;;;;;;19.38;51.36;99789.41;1734915;80;25792;-68
2021/07/31 00:11:04;;;;;;;16.77;5.65;;;;;;;19.35;51.42;99798.71;1743875;80;27439;-69
2021/07/31 00:13:30;;;;;;;9.33;4.72;;;;;;;19.34;51.49;99783.41;1746693;80;25811;-70
2021/07/31 00:15:56;;;;;;;15.50;5.62;;;;;;;19.33;51.57;99780.33;1741750;80;25727;-68
2021/07/31 00:18:22;;;;;;;12.95;4.80;;;;;;;19.32;51.63;99785.91;1748735;80;26369;-68
2021/07/31 00:20:49;;;;;;;10.95;4.62;;;;;;;19.30;51.66;99781.12;1745771;80;26517;-69
2021/07/31 00:23:16;;;;;;;8.40;4.58;;;;;;;19.26;51.73;99785.98;1742813;80;27356;-70
2021/07/31 00:25:44;;;;;;;13.20;5.75;;;;;;;19.22;51.82;99783.19;1739788;80;25726;-69
2021/07/31 00:28:11;;;;;;;12.88;5.10;;;;;;;19.19;51.91;99773.11;1738508;80;25799;-70
2021/07/31 00:30:38;;;;;;;17.62;5.47;;;;;;;19.17;51.97;99765.10;1747267;80;25758;-70
2021/07/31 00:33:04;;;;;;;15.80;6.95;;;;;;;19.17;52.08;99762.89;1750714;80;25665;-70
2021/07/31 00:35:30;;;;;;;15.30;6.03;;;;;;;19.16;52.14;99759.81;1715715;81;27914;-70
2021/07/31 00:37:56;;;;;;;17.10;5.97;;;;;;;19.12;52.25;99763.31;1710002;81;25983;-69
2021/07/31 00:40:22;;;;;;;18.32;6.42;;;;;;;19.10;52.29;99764.81;1722384;81;25838;-70
2021/07/31 00:42:48;;;;;;;17.62;7.15;;;;;;;19.06;52.38;99757.95;1717858;82;26092;-70
2021/07/31 00:45:14;;;;;;;21.68;7.60;;;;;;;19.05;52.50;99760.31;1722000;81;25762;-70
2021/07/31 00:47:44;;;;;;;18.75;5.83;;;;;;;19.04;52.61;99766.73;1728570;81;27094;-70
2021/07/31 00:50:10;;;;;;;21.70;6.25;;;;;;;19.04;52.67;99753.66;1725227;81;25665;-70
2021/07/31 00:52:37;;;;;;;29.35;5.95;;;;;;;19.00;52.68;99760.38;1718857;81;26132;-69
2021/07/31 00:55:06;;;;;;;24.23;6.33;;;;;;;18.94;52.79;99756.36;1710829;81;25811;-69
2021/07/31 00:57:34;;;;;;;41.35;6.97;;;;;;;18.91;52.89;99757.14;1717635;81;25824;-70
2021/07/31 01:00:02;;;;;;;24.82;6.92;;;;;;;18.89;52.96;99757.79;1712033;82;27449;-69
2021/07/31 01:02:29;;;;;;;40.90;7.20;;;;;;;18.88;53.08;99765.58;1715011;81;25985;-69
2021/07/31 01:04:57;;;;;;;24.07;6.83;;;;;;;18.87;53.20;99769.29;1717716;81;25917;-69
2021/07/31 01:07:26;;;;;;;16.23;6.08;;;;;;;18.86;53.30;99776.58;1749484;80;25792;-70
2021/07/31 01:09:53;;;;;;;24.98;7.03;;;;;;;18.86;53.37;99768.43;1718918;81;25724;-69
2021/07/31 01:12:20;;;;;;;17.80;7.03;;;;;;;18.86;53.45;99769.79;1719816;81;27386;-70
2021/07/31 01:14:48;;;;;;;16.27;6.90;;;;;;;18.87;53.49;99775.58;1725627;81;25910;-69
2021/07/31 01:17:15;;;;;;;18.35;6.58;;;;;;;18.87;53.52;99775.58;1730025;81;26447;-69
2021/07/31 01:19:44;;;;;;;30.55;7.75;;;;;;;18.87;53.60;99774.72;1726637;81;25805;-69
2021/07/31 01:22:10;;;;;;;19.15;6.60;;;;;;;18.84;53.64;99773.14;1720757;81;25753;-69
2021/07/31 01:24:36;;;;;;;15.63;7.17;;;;;;;18.83;53.70;99775.50;1720832;81;25848;-69
2021/07/31 01:27:04;;;;;;;27.67;8.78;;;;;;;18.81;53.76;99771.56;1721921;81;25808;-69
2021/07/31 01:29:31;;;;;;;24.07;6.58;;;;;;;18.79;53.86;99768.63;1722182;82;26686;-69
2021/07/31 01:31:59;;;;;;;13.53;7.25;;;;;;;18.76;53.92;99759.41;1718660;81;25706;-69
2021/07/31 01:34:26;;;;;;;18.62;6.55;;;;;;;18.75;54.01;99765.84;1712084;82;26590;-70
2021/07/31 01:36:52;;;;;;;17.35;7.05;;;;;;;18.73;54.07;99761.05;1716049;82;26874;-70
2021/07/31 01:39:18;;;;;;;17.65;6.30;;;;;;;18.71;54.15;99758.47;1711980;82;25788;-69
2021/07/31 01:41:47;;;;;;;13.08;6.80;;;;;;;18.68;54.23;99757.89;1705199;82;26003;-69
2021/07/31 01:44:14;;;;;;;15.53;6.80;;;;;;;18.66;54.32;99749.89;1684968;82;25833;-69
2021/07/31 01:46:40;;;;;;;16.87;5.92;;;;;;;18.65;54.42;99747.31;1712810;82;25838;-70
2021/07/31 01:49:10;;;;;;;14.55;6.83;;;;;;;18.64;54.46;99748.31;1724071;81;28174;-69
2021/07/31 01:51:36;;;;;;;18.65;6.83;;;;;;;18.64;54.53;99749.67;1708279;82;26127;-69
2021/07/31 01:54:04;;;;;;;15.20;6.78;;;;;;;18.63;54.63;99747.45;1730558;81;25764;-69
2021/07/31 01:56:30;;;;;;;17.73;7.47;;;;;;;18.63;54.66;99745.24;1712753;82;25837;-69
2021/07/31 01:58:57;;;;;;;12.13;7.12;;;;;;;18.61;54.74;99739.95;1704862;82;25769;-69
2021/07/31 02:01:23;;;;;;;15.88;7.03;;;;;;;18.61;54.76;99745.38;1729982;81;27431;-69
2021/07/31 02:03:50;;;;;;;15.68;7.65;;;;;;;18.62;54.83;99744.38;1703545;82;25824;-70
2021/07/31 02:06:16;;;;;;;17.27;7.47;;;;;;;18.61;54.87;99744.02;1712666;82;25892;-69
2021/07/31 02:08:42;;;;;;;13.72;7.00;;;;;;;18.61;54.90;99743.16;1707686;82;25928;-69
2021/07/31 02:11:10;;;;;;;21.40;8.30;;;;;;;18.60;54.95;99742.77;1708748;82;25720;-69
2021/07/31 02:13:35;;;;;;;19.45;6.80;;;;;;;18.60;55.01;99741.41;1707528;82;27457;-69
2021/07/31 02:16:01;;;;;;;15.28;6.85;;;;;;;18.61;55.03;99740.45;1724853;82;25794;-69
2021/07/31 02:18:27;;;;;;;17.62;7.20;;;;;;;18.61;55.09;99745.88;1719040;81;25842;-69
2021/07/31 02:20:54;;;;;;;17.98;7.22;;;;;;;18.59;55.12;99735.63;1698659;82;26471;-69
2021/07/31 02:23:21;;;;;;;18.90;8.98;;;;;;;18.57;55.16;99737.13;1701472;82;25875;-69
2021/07/31 02:25:47;;;;;;;20.90;8.95;;;;;;;18.56;55.21;99731.84;1706930;82;28257;-69
2021/07/31 02:28:15;;;;;;;23.02;8.63;;;;;;;18.55;55.28;99733.69;1709618;82;25762;-69
2021/07/31 02:30:42;;;;;;;20.55;7.78;;;;;;;18.53;55.33;99733.47;1711573;81;25728;-68
2021/07/31 02:33:09;;;;;;;18.77;7.78;;;;;;;18.50;55.37;99727.33;1712501;82;25835;-68
2021/07/31 02:35:36;;;;;;;21.68;9.20;;;;;;;18.50;55.43;99730.04;1709088;81;25831;-69
2021/07/31 02:38:06;;;;;;;17.85;8.15;;;;;;;18.49;55.44;99731.03;1706408;82;28054;-69
2021/07/31 02:40:32;;;;;;;20.35;9.40;;;;;;;18.48;55.54;99728.45;1733500;81;25794;-69
2021/07/31 02:42:59;;;;;;;18.20;7.97;;;;;;;18.49;55.56;99732.39;1702828;82;25693;-69
2021/07/31 02:45:25;;;;;;;17.15;8.35;;;;;;;18.49;55.58;99722.03;1734326;80;25801;-70
2021/07/31 02:47:52;;;;;;;14.20;8.10;;;;;;;18.49;55.66;99726.11;1707643;82;25792;-69
2021/07/31 02:50:18;;;;;;;16.52;8.63;;;;;;;18.49;55.68;99723.39;1718610;82;27453;-70
2021/07/31 02:52:46;;;;;;;15.78;8.45;;;;;;;18.48;55.77;99734.75;1706178;82;26536;-70
2021/07/31 02:55:13;;;;;;;18.00;7.55;;;;;;;18.47;55.86;99737.09;1712985;82;25819;-69
2021/07/31 02:57:42;;;;;;;15.85;7.75;;;;;;;18.47;55.92;99731.67;1707889;82;25833;-70
2021/07/31 03:00:11;;;;;;;11.20;6.53;;;;;;;18.48;55.91;99723.89;1739798;80;26091;-70
2021/07/31 03:02:38;;;;;;;16.40;6.33;;;;;;;18.48;56.00;99727.96;1738392;80;28167;-70
2021/07/31 03:05:06;;;;;;;12.63;5.72;;;;;;;18.48;56.00;99725.75;1738419;80;25750;-70
2021/07/31 03:07:32;;;;;;;10.32;6.22;;;;;;;18.49;56.04;99724.75;1708182;82;26436;-69
2021/07/31 03:10:01;;;;;;;15.95;6.05;;;;;;;18.50;56.06;99721.04;1707006;82;25804;-69
2021/07/31 03:12:29;;;;;;;13.58;6.42;;;;;;;18.50;56.11;99723.25;1699166;81;25740;-69
2021/07/31 03:14:58;;;;;;;14.90;5.85;;;;;;;18.53;56.13;99715.83;1707585;82;27376;-70
2021/07/31 03:17:24;;;;;;;12.95;6.28;;;;;;;18.54;56.12;99712.12;1704312;82;26001;-70
2021/07/31 03:19:54;;;;;;;11.15;5.62;;;;;;;18.53;56.13;99715.83;1707413;82;26390;-70
2021/07/31 03:22:21;;;;;;;9.30;5.50;;;;;;;18.53;56.16;99707.69;1707897;82;25952;-69
2021/07/31 03:24:48;;;;;;;10.35;5.75;;;;;;;18.54;56.16;99709.41;1705453;82;25748;-70
2021/07/31 03:27:16;;;;;;;21.27;5.80;;;;;;;18.55;56.17;99704.34;1696997;82;27102;-70
2021/07/31 03:29:43;;;;;;;11.35;5.97;;;;;;;18.55;56.19;99709.77;1702177;82;26058;-69
2021/07/31 03:32:10;;;;;;;11.83;6.53;;;;;;;18.54;56.20;99712.98;1701872;82;25856;-70
2021/07/31 03:34:36;;;;;;;10.23;5.47;;;;;;;18.55;56.22;99704.34;1704074;82;26319;-70
2021/07/31 03:37:02;;;;;;;13.65;5.28;;;;;;;18.54;56.22;99699.91;1701257;82;25756;-69
2021/07/31 03:39:28;;;;;;;17.42;6.33;;;;;;;18.52;56.27;99690.55;1698339;82;27483;-70
2021/07/31 03:41:56;;;;;;;12.33;5.62;;;;;;;18.53;56.31;99691.41;1700085;82;25878;-69
2021/07/31 03:44:22;;;;;;;12.05;5.10;;;;;;;18.52;56.34;99682.91;1697675;82;25841;-69
2021/07/31 03:46:49;;;;;;;18.82;5.37;;;;;;;18.49;56.35;99682.19;1705566;81;25728;-70
2021/07/31 03:49:16;;;;;;;14.45;5.35;;;;;;;18.49;56.41;99686.76;1707454;81;25772;-70
2021/07/31 03:51:41;;;;;;;14.28;5.33;;;;;;;18.46;56.43;99689.25;1707565;82;28094;-70
2021/07/31 03:54:11;;;;;;;11.38;5.65;;;;;;;18.46;56.51;99687.04;1704040;81;25805;-70
2021/07/31 03:56:36;;;;;;;13.13;6.20;;;;;;;18.47;56.55;99690.11;1700685;81;26527;-70
2021/07/31 03:59:02;;;;;;;9.08;5.78;;;;;;;18.50;56.61;99687.12;1705296;82;25778;-71
2021/07/31 04:01:29;;;;;;;7.47;4.97;;;;;;;18.54;56.63;99697.19;1707686;82;25664;-69
2021/07/31 04:03:57;;;;;;;15.72;6.00;;;;;;;18.60;56.64;99696.63;1727048;81;27453;-69
2021/07/31 04:06:22;;;;;;;9.00;5.42;;;;;;;18.65;56.66;99693.03;1719144;82;26030;-69
2021/07/31 04:08:48;;;;;;;11.25;6.10;;;;;;;18.70;56.67;99694.33;1700765;82;26383;-69
2021/07/31 04:11:17;;;;;;;14.83;5.97;;;;;;;18.73;56.62;99687.25;1706919;81;25823;-69
2021/07/31 04:13:45;;;;;;;12.05;5.80;;;;;;;18.76;56.63;99686.11;1708686;82;25795;-69
2021/07/31 04:16:12;;;;;;;21.65;5.65;;;;;;;18.78;56.58;99686.83;1692029;82;27899;-70
2021/07/31 04:18:38;;;;;;;14.00;6.45;;;;;;;18.79;56.61;99689.90;1709343;81;25701;-69
2021/07/31 04:21:06;;;;;;;16.67;5.75;;;;;;;18.83;56.59;99686.40;1700451;82;25828;-69
2021/07/31 04:23:33;;;;;;;10.50;5.80;;;;;;;18.84;56.60;99684.91;1705973;82;25930;-69
2021/07/31 04:26:13;;;;;;;14.90;5.60;;;;;;;18.85;56.58;99685.26;1718949;82;25849;-68
2021/07/31 04:28:42;;;;;;;10.08;5.33;;;;;;;18.87;56.58;99682.41;1703449;82;27690;-68
2021/07/31 04:31:18;;;;;;;12.50;5.45;;;;;;;18.87;56.53;99681.91;1742694;81;26009;-69
2021/07/31 04:33:44;;;;;;;13.93;5.78;;;;;;;18.86;56.53;99680.19;1731977;80;25751;-69
2021/07/31 04:36:13;;;;;;;15.68;5.70;;;;;;;18.87;56.54;99685.11;1721731;81;26374;-69
2021/07/31 04:38:39;;;;;;;9.70;5.67;;;;;;;18.86;56.52;99684.76;1720014;81;25654;-69
2021/07/31 04:41:07;;;;;;;11.15;5.37;;;;;;;18.86;56.55;99684.76;1731153;81;28082;-69
2021/07/31 04:43:33;;;;;;;15.98;6.35;;;;;;;18.88;56.55;99690.41;1733707;81;26056;-68
2021/07/31 04:46:00;;;;;;;14.83;5.80;;;;;;;18.94;56.50;99694.41;1730433;81;25779;-69
2021/07/31 04:48:26;;;;;;;13.43;6.42;;;;;;;18.95;56.45;99700.20;1732281;81;25897;-69
2021/07/31 04:51:01;;;;;;;16.15;5.92;;;;;;;18.90;56.45;99687.05;1724239;81;25865;-69
2021/07/31 04:53:29;;;;;;;12.43;6.12;;;;;;;18.97;56.43;99694.98;1725482;81;27520;-69
2021/07/31 04:55:58;;;;;;;15.38;5.72;;;;;;;18.99;56.46;99697.05;1729678;81;25979;-71
2021/07/31 04:58:27;;;;;;;10.48;6.67;;;;;;;18.99;56.42;99690.27;1732550;81;25836;-69
2021/07/31 05:00:55;;;;;;;15.25;5.87;;;;;;;18.99;56.42;99690.27;1732727;81;25740;-69
2021/07/31 05:03:22;;;;;;;17.02;6.42;;;;;;;19.02;56.43;99688.62;1732785;81;25725;-69
2021/07/31 05:05:48;;;;;;;12.90;6.47;;;;;;;19.05;56.42;99686.11;1733789;81;27393;-69
2021/07/31 05:08:14;;;;;;;16.75;6.42;;;;;;;19.10;56.41;99685.19;1731513;81;25792;-69
2021/07/31 05:10:46;;;;;;;16.82;6.78;;;;;;;19.12;56.41;99687.25;1733869;81;25822;-69
2021/07/31 05:13:13;;;;;;;17.17;6.47;;;;;;;19.15;56.36;99682.89;1726944;81;26323;-69
2021/07/31 05:15:44;;;;;;;8.95;5.87;;;;;;;19.16;56.37;99679.17;1732946;81;25788;-69
2021/07/31 05:18:12;;;;;;;;;;;;;;;19.18;56.36;99681.24;1725712;80;28125;-70
2021/07/31 05:20:41;;;;;;;18.40;5.85;;;;;;;19.22;56.42;99679.09;1735729;81;25890;-69
2021/07/31 05:23:08;;;;;;;13.62;5.80;;;;;;;19.22;56.37;99677.23;1732622;81;25713;-69
2021/07/31 05:25:35;;;;;;;12.85;5.75;;;;;;;19.26;56.28;99675.09;1732599;81;26781;-69
2021/07/31 05:28:02;;;;;;;14.73;5.62;;;;;;;19.29;56.29;99672.08;1739023;81;25741;-69
2021/07/31 05:30:28;;;;;;;13.78;6.85;;;;;;;19.29;56.28;99669.36;1732688;81;27319;-69
2021/07/31 05:32:54;;;;;;;11.03;5.92;;;;;;;19.32;56.32;99674.00;1732623;81;25843;-69
2021/07/31 05:35:22;;;;;;;7.25;6.03;;;;;;;19.35;56.29;99683.22;1723980;81;25741;-69
2021/07/31 05:37:48;;;;;;;24.80;10.80;;;;;;;19.40;56.32;99696.37;1733226;81;26668;-69
2021/07/31 05:40:15;;;;;;;22.02;10.80;;;;;;;19.44;56.32;99691.86;1740471;81;25753;-69
2021/07/31 05:42:42;;;;;;;19.25;8.83;;;;;;;19.50;56.29;99691.77;1725769;81;27425;-69
2021/07/31 05:45:10;;;;;;;19.00;7.42;;;;;;;19.54;56.28;99698.66;1733030;80;25873;-69
2021/07/31 05:47:38;;;;;;;19.27;7.03;;;;;;;19.59;56.29;99693.64;1731986;81;25516;-69
2021/07/31 05:50:08;;;;;;;13.75;7.35;;;;;;;19.62;56.27;99691.13;1729136;81;26476;-69
2021/07/31 05:52:36;;;;;;;14.53;6.90;;;;;;;19.65;56.26;99699.86;1733772;81;25765;-69
2021/07/31 05:55:06;;;;;;;13.95;6.00;;;;;;;19.71;56.24;99692.97;1732669;81;27608;-70
2021/07/31 05:57:32;;;;;;;13.45;6.37;;;;;;;19.77;56.22;99695.09;1731312;81;26001;-69
2021/07/31 05:59:58;;;;;;;22.70;7.70;;;;;;;19.83;56.21;99697.73;1732760;81;25910;-69
2021/07/31 06:02:24;;;;;;;9.03;5.25;;;;;;;19.87;56.14;99697.78;1732678;81;26090;-69
2021/07/31 06:04:50;;;;;;;12.47;5.72;;;;;;;19.88;56.11;99687.26;1732478;81;25867;-69
2021/07/31 06:07:18;;;;;;;15.13;5.53;;;;;;;19.87;56.09;99693.70;1732668;81;27461;-69
2021/07/31 06:09:56;;;;;;;20.35;5.87;;;;;;;19.85;56.08;99685.70;1730060;81;25797;-69
2021/07/31 06:12:23;;;;;;;13.38;6.28;;;;;;;19.85;56.05;99687.56;1701439;82;26498;-68
2021/07/31 06:14:50;;;;;;;15.25;6.67;;;;;;;19.85;56.06;99682.12;1714511;82;26499;-69
2021/07/31 06:17:18;;;;;;;17.57;6.60;;;;;;;19.82;56.00;99686.49;1710695;82;25724;-69
2021/07/31 06:19:44;;;;;;;11.25;6.50;;;;;;;19.80;56.03;99688.00;1712406;82;28072;-70
2021/07/31 06:22:10;;;;;;;17.25;6.22;;;;;;;19.80;56.10;99676.27;1714454;82;26558;-69
2021/07/31 06:24:36;;;;;;;13.22;6.22;;;;;;;19.84;56.14;99670.89;1706112;82;25779;-69
2021/07/31 06:27:03;;;;;;;15.45;6.55;;;;;;;19.90;56.16;99680.66;1704182;82;25771;-69
2021/07/31 06:29:29;;;;;;;15.05;6.90;;;;;;;19.95;56.14;99691.95;1700844;82;25793;-70
2021/07/31 06:31:56;;;;;;;10.88;6.53;;;;;;;20.02;56.22;99693.07;1709423;82;27429;-70
2021/07/31 06:34:21;;;;;;;14.90;6.37;;;;;;;20.10;56.23;99688.23;1705601;82;25858;-70
2021/07/31 06:36:48;;;;;;;15.28;7.03;;;;;;;20.18;56.29;99686.98;1712252;82;26013;-71
2021/07/31 06:39:14;;;;;;;14.15;5.85;;;;;;;20.28;56.28;99687.78;1710274;82;26050;-69
2021/07/31 06:41:40;;;;;;;17.77;6.72;;;;;;;20.37;56.27;99678.70;1706351;82;25803;-69
2021/07/31 06:44:07;;;;;;;15.53;7.03;;;;;;;20.49;56.26;99686.70;1716036;82;27394;-70
2021/07/31 06:46:32;;;;;;;17.00;7.92;;;;;;;20.57;56.17;99681.34;1706900;82;25693;-69
2021/07/31 06:49:01;;;;;;;13.05;6.87;;;;;;;20.69;56.14;99689.64;1708100;81;25732;-69
2021/07/31 06:51:28;;;;;;;19.05;7.65;;;;;;;20.78;56.06;99692.80;1708023;82;26449;-70
2021/07/31 06:53:56;;;;;;;22.77;6.97;;;;;;;20.93;55.99;99693.08;1727884;81;25744;-70
2021/07/31 06:56:24;;;;;;;14.35;6.60;;;;;;;21.07;55.88;99702.07;1715571;82;27411;-70
2021/07/31 06:58:52;;;;;;;18.32;7.15;;;;;;;21.19;55.78;99702.69;1711316;82;25899;-70
2021/07/31 07:01:19;;;;;;;13.15;6.78;;;;;;;21.31;55.68;99712.36;1710302;82;25744;-70
2021/07/31 07:03:48;;;;;;;14.58;6.12;;;;;;;21.43;55.48;99717.91;1716376;81;25897;-70
2021/07/31 07:06:14;;;;;;;25.15;6.47;;;;;;;21.51;55.35;99714.39;1705689;82;25895;-70
2021/07/31 07:08:43;;;;;;;12.78;6.22;;;;;;;21.60;55.07;99714.30;1724904;81;28161;-70
2021/07/31 07:11:13;;;;;;;18.00;6.37;;;;;;;21.74;54.68;99717.45;1694482;82;25736;-71
2021/07/31 07:13:39;;;;;;;11.38;6.10;;;;;;;21.86;54.47;99718.89;1694680;82;25785;-70
2021/07/31 07:16:06;;;;;;;12.37;6.55;;;;;;;22.02;54.36;99716.30;1710588;82;26045;-70
2021/07/31 07:18:34;;;;;;;11.40;5.42;;;;;;;22.21;54.07;99714.69;1709328;82;25769;-70
2021/07/31 07:21:08;;;;;;;11.65;5.55;;;;;;;22.40;53.85;99718.18;1706503;82;27480;-70
2021/07/31 07:23:36;;;;;;;11.88;5.08;;;;;;;22.51;53.42;99709.69;1732878;81;25857;-70
2021/07/31 07:26:09;;;;;;;13.43;5.10;;;;;;;22.64;52.93;99719.13;1726073;81;25848;-70
2021/07/31 07:28:38;;;;;;;18.12;5.53;;;;;;;22.64;52.93;99719.13;1730638;81;26459;-70
2021/07/31 07:31:05;;;;;;;11.25;5.05;;;;;;;22.70;52.58;99712.14;1737468;80;25648;-71
2021/07/31 07:33:32;;;;;;;11.08;4.97;;;;;;;22.85;52.36;99711.86;1741142;80;27455;-70
2021/07/31 07:36:01;;;;;;;20.62;5.15;;;;;;;23.01;51.97;99711.55;1743759;80;26377;-70
2021/07/31 07:38:28;;;;;;;15.55;4.85;;;;;;;23.17;51.83;99716.52;1739581;80;25695;-70
2021/07/31 07:40:54;;;;;;;13.55;4.90;;;;;;;23.39;51.17;99699.95;1729635;80;25814;-70
2021/07/31 07:43:20;;;;;;;13.20;4.53;;;;;;;23.39;51.17;99699.95;1733003;80;25740;-71
2021/07/31 07:45:48;;;;;;;11.38;4.33;;;;;;;23.52;50.84;99693.41;1721446;80;27390;-70
2021/07/31 07:48:14;;;;;;;7.05;4.40;;;;;;;23.63;50.88;99692.23;1735724;81;25751;-71
2021/07/31 07:50:39;;;;;;;10.48;4.47;;;;;;;23.78;50.46;99693.23;1741533;80;25731;-70
2021/07/31 07:53:06;;;;;;;9.13;4.08;;;;;;;23.87;49.79;99696.80;1743542;80;25824;-70
2021/07/31 07:55:32;;;;;;;9.93;4.58;;;;;;;23.93;49.78;99698.33;1741424;80;25723;-71
2021/07/31 07:57:58;;;;;;;10.45;4.20;;;;;;;24.02;48.52;99710.11;1745407;80;27421;-72
2021/07/31 08:00:24;;;;;;;20.23;12.65;;;;;;;24.05;48.38;99704.28;1743328;80;26289;-72
2021/07/31 08:02:50;;;;;;;21.40;18.77;;;;;;;24.13;47.90;99723.94;1743289;80;25798;-73
2021/07/31 08:05:18;;;;;;;13.32;7.12;;;;;;;24.15;47.94;99712.30;1751438;80;26846;-72
2021/07/31 08:07:44;;;;;;;9.90;4.72;;;;;;;24.22;47.71;99714.15;1739608;80;25782;-72
2021/07/31 08:10:12;;;;;;;14.90;5.08;;;;;;;24.31;47.70;99716.38;1746628;80;27380;-72
2021/07/31 08:12:39;;;;;;;14.15;3.92;;;;;;;24.39;47.57;99712.75;1738780;80;26563;-72
2021/07/31 08:15:09;;;;;;;12.58;4.62;;;;;;;24.44;47.43;99715.81;1740971;80;25902;-73
2021/07/31 08:17:38;;;;;;;10.75;4.15;;;;;;;24.47;46.57;99720.94;1734021;80;26246;-72
2021/07/31 08:20:08;;;;;;;17.98;3.40;;;;;;;24.52;45.70;99704.81;1741025;80;25776;-73
2021/07/31 08:22:34;;;;;;;14.23;3.52;;;;;;;24.56;45.51;99720.72;1746748;80;27458;-72
2021/07/31 08:25:00;;;;;;;6.87;3.30;;;;;;;24.63;44.85;99726.34;1749271;80;25790;-72
2021/07/31 08:27:29;;;;;;;23.05;4.15;;;;;;;24.65;44.75;99735.75;1745485;80;25904;-72
2021/07/31 08:29:55;;;;;;;11.80;3.52;;;;;;;24.73;44.45;99730.22;1734803;81;25783;-72
2021/07/31 08:32:22;;;;;;;10.28;3.12;;;;;;;24.82;43.83;99723.15;1745138;80;25758;-72
2021/07/31 08:34:50;;;;;;;13.48;2.75;;;;;;;24.86;43.58;99724.49;1740383;80;27458;-73
2021/07/31 08:37:18;;;;;;;9.38;3.30;;;;;;;24.87;43.19;99741.28;1732110;80;25766;-74
2021/07/31 08:39:44;;;;;;;11.22;3.35;;;;;;;24.91;42.47;99725.32;1741241;80;25835;-72
2021/07/31 08:42:12;;;;;;;8.40;4.45;;;;;;;24.99;42.65;99731.30;1739843;80;25775;-72
2021/07/31 08:44:40;;;;;;;12.90;2.85;;;;;;;25.03;42.82;99727.16;1740530;80;25974;-73
2021/07/31 08:47:09;;;;;;;4.87;3.20;;;;;;;25.05;42.53;99734.69;1739594;80;27403;-72
2021/07/31 08:49:42;;;;;;;11.15;3.52;;;;;;;25.14;42.83;99722.62;1737035;80;25845;-72
2021/07/31 08:52:10;;;;;;;9.75;3.27;;;;;;;25.17;42.36;99735.98;1743079;80;26605;-72
2021/07/31 08:54:39;;;;;;;34.50;4.05;;;;;;;25.17;42.11;99740.09;1740901;80;26948;-72
2021/07/31 08:57:09;;;;;;;11.27;2.90;;;;;;;25.21;42.23;99725.83;1740397;80;25853;-73
2021/07/31 08:59:42;;;;;;;9.18;2.65;;;;;;;25.23;42.01;99729.24;1741651;80;28013;-73
2021/07/31 09:02:09;;;;;;;10.40;2.77;;;;;;;25.23;42.12;99731.98;1733206;80;26548;-73
2021/07/31 09:04:45;;;;;;;5.05;2.77;;;;;;;25.30;41.77;99739.48;1735122;80;25715;-72
2021/07/31 09:07:15;;;;;;;7.55;2.77;;;;;;;25.24;41.66;99732.84;1741834;80;26338;-72
2021/07/31 09:09:41;;;;;;;10.55;2.85;;;;;;;25.11;41.24;99749.90;1728498;80;25750;-73
2021/07/31 09:12:10;;;;;;;7.30;2.87;;;;;;;25.10;41.66;99737.22;1738872;80;27385;-72
2021/07/31 09:14:46;;;;;;;8.65;2.98;;;;;;;25.18;41.65;99744.54;1738953;80;26378;-74
2021/07/31 09:17:23;;;;;;;4.80;2.33;;;;;;;25.16;41.19;99735.13;1716021;81;25808;-73
2021/07/31 09:19:57;;;;;;;13.53;2.50;;;;;;;25.09;41.21;99762.09;1703654;82;25725;-74
2021/07/31 09:22:26;;;;;;;6.72;2.22;;;;;;;25.14;41.11;99737.72;1717485;81;25720;-73
2021/07/31 09:25:16;;;;;;;5.80;2.67;;;;;;;25.19;40.32;99742.13;1726318;82;27371;-73
2021/07/31 09:27:41;;;;;;;6.10;2.30;;;;;;;25.12;40.14;99749.38;1717478;82;25935;-72
2021/07/31 09:30:10;;;;;;;6.70;2.50;;;;;;;25.17;40.08;99740.95;1738691;80;25448;-73
2021/07/31 09:32:39;;;;;;;11.22;2.60;;;;;;;25.23;40.21;99729.77;1709655;81;26460;-72
2021/07/31 09:35:22;;;;;;;6.87;2.37;;;;;;;25.31;39.68;99744.78;1684757;82;25732;-75
2021/07/31 09:37:51;;;;;;;10.65;2.72;;;;;;;25.22;39.64;99744.00;1698463;81;27442;-75
2021/07/31 09:40:29;;;;;;;7.72;2.40;;;;;;;25.15;39.68;99754.50;1713215;82;25838;-74
2021/07/31 09:42:56;;;;;;;3.47;2.45;;;;;;;25.19;39.62;99747.09;1699016;82;25860;-72
2021/07/31 09:45:32;;;;;;;6.95;2.77;;;;;;;25.15;39.50;99749.02;1706043;82;26416;-71
2021/07/31 09:48:02;;;;;;;8.13;2.40;;;;;;;25.10;39.25;99737.74;1705157;81;25824;-72
2021/07/31 09:50:43;;;;;;;5.05;2.58;;;;;;;25.06;39.26;99733.14;1710210;82;27431;-72
2021/07/31 09:53:22;;;;;;;5.15;2.20;;;;;;;25.14;39.25;99739.09;1703395;82;25914;-75
2021/07/31 09:55:48;;;;;;;7.12;2.87;;;;;;;25.23;39.53;99743.48;1703518;82;25909;-72
2021/07/31 09:58:21;;;;;;;7.15;2.05;;;;;;;25.36;39.52;99753.32;1707446;81;25862;-72
2021/07/31 10:00:54;;;;;;;7.53;2.42;;;;;;;25.38;39.08;99748.50;1697733;82;25845;-72
2021/07/31 10:03:21;;;;;;;11.70;2.52;;;;;;;25.35;39.22;99740.64;1712879;81;27449;-72
2021/07/31 10:05:49;;;;;;;7.30;2.10;;;;;;;25.38;38.94;99741.64;1708066;81;25720;-71
2021/07/31 10:08:15;;;;;;;11.63;2.33;;;;;;;25.37;39.12;99744.05;1704465;81;25853;-72
2021/07/31 10:10:42;;;;;;;14.13;2.75;;;;;;;25.59;39.16;99740.11;1713090;81;26463;-72
2021/07/31 10:13:08;;;;;;;13.22;2.12;;;;;;;25.68;38.22;99737.13;1711905;81;25699;-73
2021/07/31 10:15:34;;;;;;;5.22;1.70;;;;;;;25.65;37.21;99748.48;1715103;81;28022;-73
2021/07/31 10:18:10;;;;;;;5.95;2.08;;;;;;;25.71;37.73;99731.27;1706579;81;26014;-72
2021/07/31 10:20:39;;;;;;;7.53;1.90;;;;;;;25.76;37.14;99738.95;1703461;82;26520;-75
2021/07/31 10:23:08;;;;;;;4.92;2.00;;;;;;;25.74;37.21;99734.16;1699696;82;25686;-75
2021/07/31 10:25:36;;;;;;;4.85;1.95;;;;;;;25.76;37.08;99736.20;1704399;81;25749;-74
2021/07/31 10:28:24;;;;;;;7.83;2.37;;;;;;;25.66;36.90;99750.70;1704332;81;28278;-74
2021/07/31 10:30:51;;;;;;;9.15;2.20;;;;;;;25.49;36.53;99748.07;1714266;81;25817;-74
2021/07/31 10:33:45;;;;;;;7.83;1.82;;;;;;;25.42;36.92;99744.36;1708270;81;25833;-73
2021/07/31 10:36:38;;;;;;;7.95;2.02;;;;;;;25.57;36.78;99740.29;1698168;81;25948;-72
2021/07/31 10:39:29;;;;;;;9.73;2.40;;;;;;;25.87;36.99;99741.24;1700248;81;25804;-76
2021/07/31 10:42:00;;;;;;;3.52;2.08;;;;;;;25.78;36.82;99748.70;1712038;81;25769;-74
2021/07/31 10:44:27;;;;;;;6.30;2.30;;;;;;;25.68;36.95;99737.13;1703869;82;25735;-75
2021/07/31 10:47:25;;;;;;;5.05;2.25;;;;;;;25.55;37.00;99732.76;1711864;81;26442;-76
2021/07/31 10:49:51;;;;;;;5.70;2.72;;;;;;;25.64;36.53;99728.05;1709636;81;26446;-76
2021/07/31 10:52:52;;;;;;;7.67;1.90;;;;;;;25.72;36.39;99750.82;1711541;81;25690;-78
2021/07/31 10:55:21;;;;;;;3.10;1.60;;;;;;;25.78;36.04;99739.62;1710122;82;27507;-77
2021/07/31 10:58:03;;;;;;;5.08;2.00;;;;;;;25.81;36.66;99737.88;1710106;82;26266;-74
2021/07/31 11:00:40;;;;;;;16.62;2.55;;;;;;;25.67;36.31;99720.85;1714640;82;26376;-75
2021/07/31 11:03:23;;;;;;;9.23;2.08;;;;;;;25.70;36.00;99748.78;1699557;82;25830;-74
2021/07/31 11:05:55;;;;;;;2.45;1.70;;;;;;;25.70;36.13;99747.41;1703686;82;25872;-74
2021/07/31 11:08:26;;;;;;;8.93;2.58;;;;;;;25.79;36.01;99746.81;1697705;82;29518;-73
2021/07/31 11:10:57;;;;;;;9.03;2.00;;;;;;;25.90;36.26;99747.73;1702239;81;25770;-74
2021/07/31 11:13:29;;;;;;;16.42;1.90;;;;;;;25.98;36.17;99748.17;1701981;82;25826;-76
2021/07/31 11:16:09;;;;;;;6.42;1.60;;;;;;;26.16;35.46;99739.02;1711390;81;25875;-74
2021/07/31 11:18:42;;;;;;;9.53;2.12;;;;;;;26.13;35.45;99734.75;1691052;81;26252;-74
2021/07/31 11:21:16;;;;;;;6.83;1.67;;;;;;;26.24;35.58;99732.05;1700076;82;27314;-74
2021/07/31 11:24:00;;;;;;;11.95;2.47;;;;;;;26.35;34.53;99748.09;1709409;82;25748;-74
2021/07/31 11:26:49;;;;;;;9.83;1.45;;;;;;;26.30;34.55;99745.55;1705917;81;25792;-74
2021/07/31 11:29:26;;;;;;;8.00;2.02;;;;;;;26.32;34.38;99738.01;1709268;81;26472;-74
2021/07/31 11:32:16;;;;;;;5.47;3.10;;;;;;;26.57;34.05;99759.17;1705390;81;25743;-74
2021/07/31 11:34:49;;;;;;;7.47;1.55;;;;;;;26.60;33.88;99734.05;1702190;82;27458;-74